Terminal Aerodrome Forecast
Issued by NWS

Home | Current Version | Previous Version | Text Only | Print | Product List | Glossary On
Versions: 1 2 3 4 5 6 7 8 9 10 11 12 13 14
891
FTUS46 KEKA 271122
TAFUKI
TAF
KUKI 271122Z 2712/2812 00000KT P6SM FEW002 SCT015 BKN030
      TEMPO 2712/2716 1SM BR BKN002 OVC004
     FM271800 00000KT P6SM SCT060
     FM272100 31006KT P6SM SCT100
     FM280300 VRB03KT P6SM SKC
     FM280900 00000KT 6SM BR SCT008=

USA.gov is the U.S. government's official web portal to all federal, state and local government web resources and services.